Terminal Aerodrome Forecast
Issued by NWS

Home | Current Version | Previous Version | Graphics & Text | Print | Product List | Glossary On
Versions: 1 2 3 4 5 6 7 8 9 10 11 12 13 14 15 16 17 18 19 20 21 22 23 24 25 26 27
000
FTUS43 KBIS 032201 AAA
TAFMOT
TAF AMD
KMOT 032201Z 0322/0418 20005KT 2SM FU VV027
     FM040100 16004KT 3SM FU SCT050
     FM041600 16010KT P6SM SCT070=

USA.gov is the U.S. government's official web portal to all federal, state and local government web resources and services.